Time;durP1;ratioP1;P1;durP2;ratioP2;P2;SDS_P1;SDS_P2;PMS_P1;PMS_P2;Temp;Humidity;BMP_temperature;BMP_pressure;BME280_temperature;BME280_humidity;BME280_pressure;Samples;Min_cycle;Max_cycle;Signal;HPM_P1;HPM_P2
2022/10/28 00:00:14;;;;;;;1.50;1.20;;;;;;;18.13;93.37;101273.69;4986531;28;20050;-65
2022/10/28 00:02:39;;;;;;;2.28;1.40;;;;;;;18.06;93.29;101269.00;4989262;28;20046;-65
2022/10/28 00:05:05;;;;;;;2.78;1.20;;;;;;;18.03;93.19;101258.91;4989386;28;20030;-66
2022/10/28 00:07:31;;;;;;;2.15;1.20;;;;;;;18.00;93.16;101265.16;4987141;28;20067;-65
2022/10/28 00:09:56;;;;;;;2.45;1.20;;;;;;;18.03;93.02;101259.69;4989198;28;20030;-66
2022/10/28 00:12:22;;;;;;;1.70;1.42;;;;;;;17.84;94.21;101264.75;4988660;28;20038;-65
2022/10/28 00:14:47;;;;;;;2.20;1.48;;;;;;;17.83;94.38;101265.91;4987648;28;20033;-66
2022/10/28 00:17:12;;;;;;;1.85;1.45;;;;;;;17.84;93.99;101270.19;4989865;28;20057;-65
2022/10/28 00:19:38;;;;;;;1.83;1.20;;;;;;;17.74;93.81;101260.06;4991309;28;20046;-65
2022/10/28 00:22:03;;;;;;;1.92;1.25;;;;;;;17.77;94.25;101264.72;4990033;28;20092;-65
2022/10/28 00:24:28;;;;;;;2.08;1.05;;;;;;;17.73;93.63;101262.00;4990226;28;20117;-65
2022/10/28 00:26:54;;;;;;;1.92;1.10;;;;;;;17.64;93.40;101263.53;4989574;28;20022;-66
2022/10/28 00:29:19;;;;;;;1.35;1.08;;;;;;;17.62;93.81;101250.31;4991158;28;20033;-65
2022/10/28 00:31:46;;;;;;;2.58;1.30;;;;;;;17.57;93.85;101250.72;4987947;28;20049;-66
2022/10/28 00:34:17;;;;;;;1.58;1.30;;;;;;;17.52;94.00;101253.00;4989681;28;20115;-65
2022/10/28 00:36:44;;;;;;;1.88;1.35;;;;;;;17.53;93.74;101252.66;4986630;28;20121;-65
2022/10/28 00:39:18;;;;;;;2.03;1.13;;;;;;;17.54;93.89;101251.47;4988030;28;20454;-65
2022/10/28 00:41:49;;;;;;;2.13;1.25;;;;;;;17.49;93.86;101260.03;4990300;28;20038;-65
2022/10/28 00:44:52;;;;;;;7.40;1.65;;;;;;;17.44;94.02;101249.47;4989031;28;20513;-65
2022/10/28 00:47:55;;;;;;;1.98;1.17;;;;;;;17.38;93.65;101256.44;4981741;28;20049;-65
2022/10/28 00:50:31;;;;;;;1.77;1.15;;;;;;;17.40;93.97;101259.56;4978248;28;20038;-65
2022/10/28 00:53:05;;;;;;;1.92;1.17;;;;;;;17.32;93.90;101254.50;4989003;28;20410;-65
2022/10/28 00:55:31;;;;;;;1.88;1.17;;;;;;;17.24;94.36;101256.44;4988619;28;20031;-65
2022/10/28 00:57:58;;;;;;;2.33;1.77;;;;;;;17.13;94.34;101255.59;4989582;28;20113;-65
2022/10/28 01:00:24;;;;;;;2.10;1.80;;;;;;;17.20;94.30;101263.81;4990883;28;20129;-65
2022/10/28 01:02:50;;;;;;;1.65;1.30;;;;;;;17.11;94.57;101257.97;4990827;28;20049;-65
2022/10/28 01:05:27;;;;;;;2.17;1.33;;;;;;;17.22;94.29;101266.16;4990288;28;20034;-65
2022/10/28 01:07:58;;;;;;;1.80;1.30;;;;;;;17.25;94.24;101263.44;5002767;28;20495;-65
2022/10/28 01:10:37;;;;;;;2.15;1.40;;;;;;;17.22;94.18;101264.22;4986017;28;20038;-65
2022/10/28 01:13:25;;;;;;;2.67;1.52;;;;;;;17.25;94.03;101263.44;4992670;28;20038;-65
2022/10/28 01:16:20;;;;;;;2.10;1.48;;;;;;;17.25;94.15;101251.78;4993500;28;20049;-65
2022/10/28 01:19:41;;;;;;;3.35;1.77;;;;;;;17.42;93.37;101251.03;4985175;28;20042;-66
2022/10/28 01:22:20;;;;;;;2.22;1.40;;;;;;;17.37;94.76;101254.13;4978907;28;20042;-66
2022/10/28 01:25:10;;;;;;;3.00;1.40;;;;;;;17.38;94.91;101247.53;4992679;28;20440;-65
2022/10/28 01:28:06;;;;;;;4.95;1.45;;;;;;;17.44;94.89;101252.19;4980661;28;20517;-66
2022/10/28 01:31:11;;;;;;;1.80;1.48;;;;;;;17.45;94.84;101250.25;4984797;28;20391;-66
2022/10/28 01:33:52;;;;;;;1.95;1.17;;;;;;;17.40;95.26;101247.91;4991774;28;20081;-65
2022/10/28 01:36:22;;;;;;;3.60;1.53;;;;;;;17.44;94.74;101257.63;4993186;28;20034;-65
2022/10/28 01:38:57;;;;;;;2.25;1.40;;;;;;;17.37;95.42;101254.91;4991510;28;20038;-66
2022/10/28 01:41:52;;;;;;;1.98;1.40;;;;;;;17.34;95.39;101261.13;4993866;28;20046;-66
2022/10/28 01:44:28;;;;;;;3.72;1.55;;;;;;;17.41;95.67;101252.19;4978401;28;20054;-67
2022/10/28 01:47:05;;;;;;;1.58;1.13;;;;;;;17.40;95.06;101256.09;4990416;28;20038;-68
2022/10/28 01:49:44;;;;;;;2.17;1.58;;;;;;;17.32;95.05;101255.28;4986846;28;20030;-66
2022/10/28 01:52:13;;;;;;;1.70;1.30;;;;;;;17.47;94.36;101256.09;4992987;28;20046;-68
2022/10/28 01:54:42;;;;;;;2.63;1.50;;;;;;;17.43;94.63;101252.59;4989505;28;20038;-66
2022/10/28 01:57:11;;;;;;;1.98;1.20;;;;;;;17.39;95.15;101255.31;4995906;28;20068;-65
2022/10/28 01:59:37;;;;;;;3.80;1.58;;;;;;;17.47;94.75;101253.38;4993675;28;20042;-66
2022/10/28 02:02:02;;;;;;;3.70;1.65;;;;;;;17.43;95.41;101255.31;4992296;28;20057;-65
2022/10/28 02:04:28;;;;;;;2.42;1.60;;;;;;;17.41;95.70;101246.75;4992513;28;20510;-66
2022/10/28 02:06:55;;;;;;;7.95;1.23;;;;;;;17.41;95.84;101239.34;4993267;28;20077;-66
2022/10/28 02:09:33;;;;;;;4.85;1.40;;;;;;;17.40;95.72;101237.78;4993254;28;20073;-66
2022/10/28 02:12:24;;;;;;;2.75;1.23;;;;;;;17.38;95.29;101240.13;4991498;28;20038;-65
2022/10/28 02:15:27;;;;;;;2.45;1.25;;;;;;;17.33;95.03;101248.66;4986195;28;20060;-65
2022/10/28 02:18:11;;;;;;;1.90;1.40;;;;;;;17.29;95.21;101247.88;4992166;28;20034;-65
2022/10/28 02:20:56;;;;;;;1.67;1.38;;;;;;;17.19;95.62;101240.47;4992898;28;20047;-65
2022/10/28 02:23:42;;;;;;;3.50;1.40;;;;;;;17.19;95.22;101234.25;4992240;28;20173;-66
2022/10/28 02:26:18;;;;;;;5.90;1.40;;;;;;;17.30;95.49;101232.34;4992159;28;20070;-66
2022/10/28 02:29:11;;;;;;;4.90;1.60;;;;;;;17.31;95.60;101236.59;4993551;28;20494;-66
2022/10/28 02:31:49;;;;;;;2.45;1.52;;;;;;;17.29;96.25;101231.53;4992399;28;20045;-66
2022/10/28 02:34:19;;;;;;;2.65;1.70;;;;;;;17.32;95.99;101225.34;4992503;28;20034;-66
2022/10/28 02:36:49;;;;;;;5.40;1.67;;;;;;;17.27;96.37;101222.97;4991748;28;20034;-66
2022/10/28 02:39:19;;;;;;;1.83;1.38;;;;;;;17.34;95.88;101209.41;4990136;28;20038;-66
2022/10/28 02:41:53;;;;;;;2.60;1.50;;;;;;;17.31;96.23;101217.53;4983936;28;20042;-66
2022/10/28 02:44:25;;;;;;;2.65;1.80;;;;;;;17.20;96.29;101209.38;4992461;28;20050;-66
2022/10/28 02:46:55;;;;;;;1.83;1.25;;;;;;;17.10;96.55;101210.91;4993006;28;20487;-66
2022/10/28 02:49:23;;;;;;;2.97;1.52;;;;;;;17.08;96.26;101218.66;4992526;28;20049;-66
2022/10/28 02:51:56;;;;;;;2.80;1.42;;;;;;;17.08;96.19;101215.16;4992858;28;20049;-66
2022/10/28 02:54:28;;;;;;;2.90;1.60;;;;;;;17.03;96.23;101213.56;4988278;28;20050;-66
2022/10/28 02:57:16;;;;;;;5.25;1.60;;;;;;;17.05;96.23;101215.94;4983185;28;20038;-66
2022/10/28 02:59:42;;;;;;;3.63;1.63;;;;;;;16.94;96.18;101207.72;4992490;28;20034;-66
2022/10/28 03:02:08;;;;;;;2.53;1.52;;;;;;;16.92;96.43;101193.72;4992588;28;20175;-66
2022/10/28 03:04:33;;;;;;;4.43;1.50;;;;;;;16.93;96.07;101194.50;4990846;28;20032;-66
2022/10/28 03:06:59;;;;;;;2.60;1.63;;;;;;;16.87;95.94;101194.13;4983731;28;20035;-66
2022/10/28 03:09:24;;;;;;;3.65;1.70;;;;;;;16.86;95.97;101187.09;4984505;28;20061;-66
2022/10/28 03:11:49;;;;;;;3.67;2.55;;;;;;;16.90;95.94;101187.88;4990984;28;20030;-66
2022/10/28 03:14:15;;;;;;;4.78;2.10;;;;;;;16.76;96.10;101181.63;4990921;28;20083;-66
2022/10/28 03:16:40;;;;;;;3.10;1.80;;;;;;;16.78;96.55;101182.78;4991209;28;20060;-66
2022/10/28 03:19:05;;;;;;;3.90;2.10;;;;;;;16.71;96.39;101171.09;4987978;28;20046;-67
2022/10/28 03:21:31;;;;;;;3.63;1.50;;;;;;;16.69;96.15;101174.22;4990241;28;20157;-67
2022/10/28 03:23:56;;;;;;;2.97;1.67;;;;;;;16.72;96.13;101165.31;4983900;28;20039;-66
2022/10/28 03:26:21;;;;;;;2.75;1.63;;;;;;;16.64;96.63;101169.16;4990415;28;20092;-66
2022/10/28 03:28:47;;;;;;;2.25;1.30;;;;;;;16.67;96.24;101168.38;4992031;28;20038;-66
2022/10/28 03:31:14;;;;;;;3.17;1.92;;;;;;;16.58;96.24;101170.69;4991790;28;20034;-66
2022/10/28 03:33:39;;;;;;;2.33;1.60;;;;;;;16.60;96.18;101168.34;4985319;28;20382;-66
2022/10/28 03:36:05;;;;;;;3.00;1.60;;;;;;;16.67;96.27;101170.31;4990937;28;20089;-66
2022/10/28 03:38:30;;;;;;;3.17;1.67;;;;;;;16.66;95.99;101175.00;4991925;28;20507;-66
2022/10/28 03:40:55;;;;;;;2.47;1.58;;;;;;;16.64;96.14;101163.72;4992114;28;20038;-66
2022/10/28 03:43:21;;;;;;;4.43;1.40;;;;;;;16.65;96.61;101169.91;4991215;28;20125;-66
2022/10/28 03:45:46;;;;;;;2.47;1.50;;;;;;;16.75;96.95;101171.91;4991206;28;20049;-67
2022/10/28 03:48:12;;;;;;;2.95;1.40;;;;;;;16.77;97.17;101161.41;4991795;28;20042;-66
2022/10/28 03:50:37;;;;;;;4.40;1.63;;;;;;;16.83;96.87;101155.22;4990609;28;20044;-66
2022/10/28 03:53:03;;;;;;;3.08;1.90;;;;;;;16.87;96.82;101155.22;4982006;28;20117;-66
2022/10/28 03:55:28;;;;;;;3.97;1.65;;;;;;;16.92;96.52;101161.06;4989743;28;20061;-66
2022/10/28 03:57:53;;;;;;;3.45;1.58;;;;;;;16.95;96.17;101151.38;4991257;28;20109;-66
2022/10/28 04:00:19;;;;;;;4.63;1.52;;;;;;;17.00;96.35;101157.22;4991336;28;20041;-66
2022/10/28 04:02:51;;;;;;;5.13;1.27;;;;;;;17.00;96.63;101153.69;4987392;28;20425;-67
2022/10/28 04:05:18;;;;;;;3.13;1.67;;;;;;;17.07;96.70;101156.47;4990445;28;20177;-66
2022/10/28 04:07:43;;;;;;;3.72;1.83;;;;;;;17.05;96.90;101158.78;4989275;28;20046;-66
2022/10/28 04:10:09;;;;;;;7.88;1.80;;;;;;;17.15;96.83;101155.28;4987865;28;20034;-66
2022/10/28 04:12:35;;;;;;;2.83;1.52;;;;;;;17.17;97.07;101158.41;4989766;28;20038;-66
2022/10/28 04:15:00;;;;;;;3.15;1.35;;;;;;;17.18;97.67;101162.69;4988662;28;20041;-66
2022/10/28 04:17:25;;;;;;;4.65;1.77;;;;;;;17.17;97.53;101156.47;4991577;28;20037;-66
2022/10/28 04:19:51;;;;;;;2.95;1.50;;;;;;;17.36;96.40;101158.06;4990912;28;20038;-66
2022/10/28 04:22:16;;;;;;;2.50;1.50;;;;;;;17.33;97.00;101142.47;4990781;28;20438;-66
2022/10/28 04:24:42;;;;;;;3.78;1.77;;;;;;;17.24;97.58;101138.59;4988940;28;20030;-66
2022/10/28 04:27:07;;;;;;;2.72;1.25;;;;;;;17.26;97.54;101139.75;5018015;22;20054;-69
2022/10/28 04:29:32;;;;;;;2.78;1.52;;;;;;;17.28;97.18;101147.53;5009188;28;20164;-69
2022/10/28 04:31:58;;;;;;;4.75;1.85;;;;;;;17.32;97.37;101138.22;5009813;28;20030;-69
2022/10/28 04:34:24;;;;;;;5.05;1.98;;;;;;;17.15;98.78;101139.72;5007664;28;20489;-70
2022/10/28 04:36:50;;;;;;;4.45;1.98;;;;;;;17.22;98.74;101138.97;4999894;28;20030;-69
2022/10/28 04:39:15;;;;;;;3.40;1.70;;;;;;;17.22;99.51;101138.97;4998486;28;20035;-68
2022/10/28 04:41:41;;;;;;;2.03;1.30;;;;;;;17.24;99.31;101147.53;5000704;28;20490;-69
2022/10/28 04:44:06;;;;;;;2.15;1.40;;;;;;;17.19;98.74;101142.47;5012792;28;20042;-70
2022/10/28 04:46:31;;;;;;;2.90;1.60;;;;;;;17.22;98.73;101133.53;5005619;28;20022;-70
2022/10/28 04:48:57;;;;;;;3.22;1.83;;;;;;;17.18;98.39;101143.63;5001188;28;20038;-70
2022/10/28 04:51:22;;;;;;;2.33;1.60;;;;;;;17.22;98.29;101157.25;5003114;28;20034;-70
2022/10/28 04:53:48;;;;;;;3.45;1.75;;;;;;;17.20;98.28;101152.19;5001032;28;20113;-69
2022/10/28 04:56:13;;;;;;;3.53;1.80;;;;;;;17.22;97.80;101160.75;4998547;28;20042;-69
2022/10/28 04:58:39;;;;;;;5.53;1.52;;;;;;;17.20;98.07;101152.19;5011265;28;20053;-69
2022/10/28 05:01:09;;;;;;;2.50;1.48;;;;;;;17.17;98.14;101152.94;5008162;28;20034;-69
2022/10/28 05:03:35;;;;;;;3.28;1.67;;;;;;;17.18;98.17;101157.25;5012045;28;20030;-70
2022/10/28 05:06:01;;;;;;;4.63;1.63;;;;;;;17.25;97.35;101143.63;5003943;28;20030;-70
2022/10/28 05:08:26;;;;;;;2.75;1.40;;;;;;;17.27;97.64;101144.03;4998714;28;20029;-70
2022/10/28 05:10:51;;;;;;;3.80;1.77;;;;;;;17.26;97.86;101139.75;5004936;28;20486;-69
2022/10/28 05:13:17;;;;;;;3.53;1.75;;;;;;;17.33;98.19;101147.13;5007948;28;20398;-70
2022/10/28 05:15:43;;;;;;;11.23;1.83;;;;;;;17.28;98.57;101133.91;5001365;28;20032;-71
2022/10/28 05:18:08;;;;;;;4.25;1.88;;;;;;;17.30;98.79;101142.47;5015509;28;20041;-71
2022/10/28 05:20:34;;;;;;;2.67;1.70;;;;;;;17.32;98.26;101143.66;5020070;28;20092;-70
2022/10/28 05:22:59;;;;;;;3.67;1.60;;;;;;;17.31;98.35;101147.53;5002113;28;20648;-70
2022/10/28 05:25:25;;;;;;;3.03;1.88;;;;;;;17.34;98.32;101137.81;4996674;28;20053;-71
2022/10/28 05:27:51;;;;;;;3.67;2.10;;;;;;;17.26;98.16;101137.03;5008748;28;20504;-70
2022/10/28 05:30:17;;;;;;;4.03;1.92;;;;;;;17.25;98.29;101127.28;5002733;28;20481;-68
2022/10/28 05:32:42;;;;;;;3.75;2.03;;;;;;;17.28;98.07;101121.09;5003648;28;20060;-71
2022/10/28 05:35:08;;;;;;;4.57;2.08;;;;;;;17.32;98.08;101102.81;5002002;28;20666;-71
2022/10/28 05:37:33;;;;;;;6.30;1.70;;;;;;;17.30;97.91;101107.88;5004079;28;20450;-71
2022/10/28 05:39:59;;;;;;;4.20;1.85;;;;;;;17.28;97.91;101104.75;4997839;28;20036;-70
2022/10/28 05:42:25;;;;;;;4.68;1.38;;;;;;;17.23;97.76;101112.53;4995364;28;20042;-69
2022/10/28 05:44:50;;;;;;;4.75;1.77;;;;;;;17.18;97.72;101127.31;4981341;28;20535;-70
2022/10/28 05:47:15;;;;;;;3.42;1.85;;;;;;;17.13;97.32;101119.50;4999602;28;20021;-70
2022/10/28 05:49:41;;;;;;;2.50;1.50;;;;;;;17.11;97.05;101119.91;5020213;28;20072;-70
2022/10/28 05:52:06;;;;;;;2.25;1.58;;;;;;;17.11;97.47;101111.72;5015284;28;20548;-71
2022/10/28 05:54:31;;;;;;;2.60;1.40;;;;;;;17.08;97.30;101107.06;5006903;28;20118;-70
2022/10/28 05:56:57;;;;;;;3.33;1.80;;;;;;;17.09;96.75;101105.13;5024203;28;20029;-69
2022/10/28 05:59:22;;;;;;;3.47;1.90;;;;;;;17.09;96.96;101102.41;5002107;28;20042;-70
2022/10/28 06:01:48;;;;;;;3.58;1.70;;;;;;;17.08;96.93;101095.41;5008304;28;20054;-70
2022/10/28 06:04:13;;;;;;;3.80;2.00;;;;;;;17.00;97.95;101093.84;5001155;28;20536;-71
2022/10/28 06:06:38;;;;;;;3.58;1.70;;;;;;;16.88;98.29;101086.81;5012709;28;20050;-72
2022/10/28 06:09:04;;;;;;;3.88;1.95;;;;;;;16.98;97.98;101093.44;5013030;28;20077;-71
2022/10/28 06:11:29;;;;;;;4.93;2.20;;;;;;;16.92;98.65;101097.69;5006969;28;20037;-69
2022/10/28 06:13:54;;;;;;;4.22;1.98;;;;;;;16.94;98.75;101093.44;5010682;28;20037;-70
2022/10/28 06:16:20;;;;;;;3.85;1.77;;;;;;;16.96;98.56;101096.56;5008262;28;20041;-70
2022/10/28 06:18:45;;;;;;;3.83;1.83;;;;;;;17.14;97.38;101099.28;5010226;28;20045;-70
2022/10/28 06:21:11;;;;;;;6.05;1.67;;;;;;;17.15;97.51;101098.91;5011487;28;20049;-71
2022/10/28 06:23:36;;;;;;;5.95;2.25;;;;;;;17.08;97.29;101104.34;5007828;28;20030;-70
2022/10/28 06:26:03;;;;;;;2.63;1.90;;;;;;;17.04;97.58;101108.22;4993853;28;20084;-71
2022/10/28 06:28:29;;;;;;;7.30;2.10;;;;;;;17.02;97.86;101113.28;5005239;28;20042;-70
2022/10/28 06:31:01;;;;;;;2.63;1.67;;;;;;;16.98;97.95;101112.47;4992798;28;20074;-70
2022/10/28 06:33:26;;;;;;;4.70;2.10;;;;;;;17.04;97.73;101119.91;5007836;28;20034;-71
2022/10/28 06:35:56;;;;;;;3.90;1.88;;;;;;;16.98;98.44;101117.94;5005620;28;20091;-70
2022/10/28 06:38:22;;;;;;;1.75;1.27;;;;;;;16.92;99.40;101122.19;5011685;28;20022;-71
2022/10/28 06:40:48;;;;;;;5.07;2.15;;;;;;;16.86;100.00;101123.75;5012577;28;20734;-71
2022/10/28 06:43:14;;;;;;;4.05;2.42;;;;;;;16.94;100.00;101117.13;5006658;28;20490;-70
2022/10/28 06:45:39;;;;;;;4.20;1.83;;;;;;;17.08;99.21;101128.06;5007260;28;20125;-71
2022/10/28 06:48:05;;;;;;;1.90;1.73;;;;;;;17.10;99.51;101120.28;4996060;28;20247;-71
2022/10/28 06:50:32;;;;;;;4.50;2.05;;;;;;;16.97;99.89;101113.66;5002584;28;20121;-71
2022/10/28 06:52:58;;;;;;;3.20;1.70;;;;;;;16.87;100.00;101111.69;4996111;28;20030;-71
2022/10/28 06:55:24;;;;;;;5.30;1.95;;;;;;;16.92;100.00;101114.81;5005547;28;20517;-71
2022/10/28 06:57:50;;;;;;;2.88;1.90;;;;;;;17.02;100.00;101113.28;5002737;28;20498;-71
2022/10/28 07:00:16;;;;;;;6.70;1.77;;;;;;;17.07;100.00;101116.38;5008432;28;20033;-71
2022/10/28 07:02:41;;;;;;;3.72;2.17;;;;;;;17.23;99.22;101113.28;5010356;28;20076;-71
2022/10/28 07:05:07;;;;;;;4.22;1.95;;;;;;;17.22;99.36;101124.56;5009679;28;20056;-70
2022/10/28 07:07:36;;;;;;;3.90;1.90;;;;;;;17.22;99.24;101127.31;5001393;28;20483;-71
2022/10/28 07:10:03;;;;;;;4.72;2.00;;;;;;;17.24;98.86;101125.75;4999137;28;20062;-71
2022/10/28 07:12:28;;;;;;;4.43;1.80;;;;;;;17.35;98.28;101129.25;4992113;28;20034;-71
2022/10/28 07:14:53;;;;;;;5.65;1.83;;;;;;;17.28;98.46;101126.53;4994014;28;20099;-71
2022/10/28 07:17:19;;;;;;;6.18;2.55;;;;;;;17.37;98.28;101132.38;4995533;28;20472;-71
2022/10/28 07:19:44;;;;;;;3.95;1.73;;;;;;;17.23;99.10;101126.91;5003011;28;20052;-71
2022/10/28 07:22:10;;;;;;;3.22;1.60;;;;;;;17.19;99.38;101120.69;5000933;28;20101;-71
2022/10/28 07:24:35;;;;;;;4.97;2.00;;;;;;;17.42;98.83;101121.06;5000502;28;20383;-70
2022/10/28 07:27:00;;;;;;;6.13;1.90;;;;;;;17.42;98.87;101121.06;5013663;28;20026;-69
2022/10/28 07:29:26;;;;;;;3.13;1.88;;;;;;;17.56;98.58;101126.56;5000910;28;20429;-71
2022/10/28 07:31:54;;;;;;;3.58;1.80;;;;;;;17.44;99.25;101126.91;4993133;28;20030;-69
2022/10/28 07:34:20;;;;;;;5.93;2.00;;;;;;;17.43;98.84;101119.91;4994587;28;20511;-70
2022/10/28 07:36:50;;;;;;;3.25;1.90;;;;;;;17.55;98.91;101118.78;4995532;28;20080;-66
2022/10/28 07:39:16;;;;;;;1.92;1.55;;;;;;;17.65;98.46;101113.31;4999246;28;20029;-69
2022/10/28 07:41:41;;;;;;;5.45;1.77;;;;;;;17.72;97.87;101110.59;4997680;28;20038;-69
2022/10/28 07:44:07;;;;;;;4.63;1.98;;;;;;;17.76;97.51;101114.09;4997202;28;20041;-69
2022/10/28 07:46:32;;;;;;;6.03;1.95;;;;;;;17.73;98.17;101101.22;5001144;28;20037;-70
2022/10/28 07:48:58;;;;;;;6.35;2.35;;;;;;;17.79;97.97;101104.34;5002229;28;20037;-69
2022/10/28 07:51:23;;;;;;;2.15;1.27;;;;;;;17.89;97.35;101106.25;4999370;28;20025;-69
2022/10/28 07:53:49;;;;;;;4.30;1.83;;;;;;;17.90;96.85;101116.78;4997305;28;20042;-70
2022/10/28 07:56:14;;;;;;;2.40;1.60;;;;;;;18.09;96.19;101117.50;4995942;28;20037;-69
2022/10/28 07:58:42;;;;;;;3.55;2.03;;;;;;;18.12;95.86;101120.22;5003213;28;20514;-70
2022/10/28 08:01:09;;;;;;;2.63;1.65;;;;;;;18.25;95.33;101117.84;5007703;28;20048;-70
2022/10/28 08:03:38;;;;;;;7.65;1.83;;;;;;;18.40;94.93;101120.13;5008723;28;20042;-70
2022/10/28 08:06:08;;;;;;;2.53;1.83;;;;;;;18.51;94.42;101128.28;4990874;28;20030;-69
2022/10/28 08:08:33;;;;;;;6.43;2.08;;;;;;;18.64;94.11;101113.81;4988631;28;20030;-70
2022/10/28 08:10:58;;;;;;;3.08;1.60;;;;;;;18.84;93.27;101120.34;5007677;28;20378;-69
2022/10/28 08:13:24;;;;;;;4.30;1.60;;;;;;;18.92;91.86;101126.53;5010572;28;20042;-69
2022/10/28 08:15:54;;;;;;;2.22;1.30;;;;;;;19.01;91.95;101115.94;5008228;28;20069;-69
2022/10/28 08:18:20;;;;;;;5.45;2.13;;;;;;;19.20;90.60;101112.66;5006388;28;20071;-70
2022/10/28 08:20:46;;;;;;;3.63;1.45;;;;;;;19.29;90.56;101107.53;5009122;28;20048;-70
2022/10/28 08:23:11;;;;;;;4.18;1.40;;;;;;;19.26;90.00;101105.59;5009093;28;20041;-70
2022/10/28 08:25:36;;;;;;;3.65;2.13;;;;;;;19.25;89.11;101103.28;5008264;28;20173;-70
2022/10/28 08:28:02;;;;;;;2.30;1.55;;;;;;;19.31;89.30;101107.91;5010923;28;20490;-70
2022/10/28 08:30:27;;;;;;;4.22;1.40;;;;;;;19.41;89.08;101104.34;4993252;28;20057;-69
2022/10/28 08:32:54;;;;;;;3.08;1.88;;;;;;;19.44;87.89;101109.00;5009030;28;20564;-70
2022/10/28 08:35:20;;;;;;;2.40;1.30;;;;;;;19.60;87.46;101108.47;5009663;28;20069;-70
2022/10/28 08:37:51;;;;;;;2.88;1.70;;;;;;;19.59;86.91;101115.09;5010244;28;20115;-69
2022/10/28 08:40:24;;;;;;;2.38;1.50;;;;;;;19.61;86.90;101110.78;5009172;28;20038;-70
2022/10/28 08:42:57;;;;;;;1.98;1.27;;;;;;;19.82;86.34;101109.84;5002604;28;20049;-71
2022/10/28 08:45:52;;;;;;;1.23;1.08;;;;;;;19.89;86.01;101111.69;4994848;28;20520;-70
2022/10/28 08:48:30;;;;;;;3.35;1.23;;;;;;;19.97;86.02;101111.22;4991325;28;20061;-70
2022/10/28 08:51:14;;;;;;;2.08;1.08;;;;;;;19.98;85.66;101099.09;4997460;28;20038;-70
2022/10/28 08:53:52;;;;;;;2.42;1.25;;;;;;;20.10;84.90;101112.25;5009190;28;20429;-70
2022/10/28 08:56:36;;;;;;;3.63;1.25;;;;;;;20.24;83.96;101117.59;5006542;28;20475;-70
2022/10/28 08:59:06;;;;;;;2.92;1.23;;;;;;;20.32;84.00;101110.06;5004444;28;20039;-70
2022/10/28 09:01:48;;;;;;;4.40;1.45;;;;;;;20.19;84.25;101100.88;5000458;28;20041;-70
2022/10/28 09:04:36;;;;;;;5.57;1.60;;;;;;;20.12;84.33;101098.94;5008181;28;20034;-70
2022/10/28 09:07:03;;;;;;;4.40;1.27;;;;;;;20.25;83.97;101104.66;4990265;28;20034;-70
2022/10/28 09:09:29;;;;;;;2.88;2.10;;;;;;;20.34;83.43;101113.94;5002708;28;20437;-70
2022/10/28 09:12:15;;;;;;;4.07;1.38;;;;;;;20.34;83.41;101104.97;5009857;28;20084;-70
2022/10/28 09:14:50;;;;;;;2.95;1.42;;;;;;;20.50;82.87;101102.41;4998969;28;20089;-69
2022/10/28 09:17:24;;;;;;;3.33;1.23;;;;;;;20.64;82.61;101104.97;4999182;28;20081;-70
2022/10/28 09:19:52;;;;;;;1.92;1.35;;;;;;;20.61;82.37;101097.59;5001758;28;20034;-70
2022/10/28 09:22:28;;;;;;;1.98;0.93;;;;;;;20.80;81.41;101096.91;5009156;28;20033;-70
2022/10/28 09:25:00;;;;;;;2.35;1.10;;;;;;;21.00;81.15;101103.25;5007546;28;20145;-71
2022/10/28 09:27:53;;;;;;;1.85;1.27;;;;;;;21.02;81.37;101102.88;4997814;28;20121;-69
2022/10/28 09:30:27;;;;;;;1.85;0.80;;;;;;;21.11;80.30;101095.69;4993654;28;20038;-69
2022/10/28 09:33:15;;;;;;;1.98;0.90;;;;;;;21.02;81.27;101089.19;5006010;28;20520;-69
2022/10/28 09:35:43;;;;;;;2.22;1.30;;;;;;;21.24;80.72;101099.41;5003761;28;20026;-69
2022/10/28 09:38:28;;;;;;;1.30;1.20;;;;;;;21.12;81.36;101104.66;5000961;28;20041;-69
2022/10/28 09:41:10;;;;;;;2.83;1.42;;;;;;;21.05;80.39;101091.09;5008661;28;20124;-69
2022/10/28 09:43:50;;;;;;;1.83;1.00;;;;;;;21.24;80.63;101088.44;4998788;28;20080;-69
2022/10/28 09:46:17;;;;;;;3.40;1.40;;;;;;;21.33;80.50;101091.41;4993137;28;20092;-70
2022/10/28 09:48:47;;;;;;;1.80;1.00;;;;;;;21.56;80.20;101094.13;5010578;28;20034;-69
2022/10/28 09:51:43;;;;;;;1.95;1.08;;;;;;;21.54;79.90;101087.53;5005781;28;20034;-69
2022/10/28 09:54:10;;;;;;;3.20;1.23;;;;;;;21.70;79.66;101084.13;5001736;28;20116;-70
2022/10/28 09:56:36;;;;;;;4.50;1.20;;;;;;;21.77;79.52;101086.72;5012005;28;20029;-69
2022/10/28 09:59:03;;;;;;;1.20;1.02;;;;;;;21.72;78.83;101085.25;4998737;28;20042;-70
2022/10/28 10:01:32;;;;;;;2.05;1.38;;;;;;;21.84;78.91;101086.63;5007804;28;20512;-69
2022/10/28 10:03:58;;;;;;;3.55;1.00;;;;;;;21.86;78.79;101084.22;5009152;28;20482;-69
2022/10/28 10:06:34;;;;;;;1.48;0.82;;;;;;;21.83;79.12;101093.31;4995087;28;20034;-69
2022/10/28 10:09:00;;;;;;;3.75;1.02;;;;;;;22.00;78.09;101079.25;4996921;28;20038;-69
2022/10/28 10:11:35;;;;;;;2.80;1.10;;;;;;;22.19;77.70;101094.94;5008165;28;20037;-69
2022/10/28 10:14:06;;;;;;;0.90;0.70;;;;;;;22.34;77.31;101089.91;5006911;28;20042;-69
2022/10/28 10:16:32;;;;;;;3.33;1.10;;;;;;;22.46;77.88;101092.03;5008023;28;20141;-69
2022/10/28 10:19:00;;;;;;;3.47;1.13;;;;;;;22.61;77.65;101090.53;4995903;28;20103;-70
2022/10/28 10:21:39;;;;;;;2.20;1.10;;;;;;;22.74;76.35;101094.19;4993305;28;20486;-70
2022/10/28 10:24:20;;;;;;;2.42;0.93;;;;;;;22.82;75.66;101078.31;5003241;28;20128;-69
2022/10/28 10:26:46;;;;;;;4.63;0.93;;;;;;;22.80;75.00;101092.47;5015043;23;20105;-65
2022/10/28 10:29:12;;;;;;;1.38;1.00;;;;;;;22.77;74.62;101084.31;5013537;28;20072;-65
2022/10/28 10:31:38;;;;;;;2.33;1.30;;;;;;;22.82;75.34;101086.56;5007513;28;20037;-65
2022/10/28 10:34:04;;;;;;;1.70;1.20;;;;;;;22.94;74.60;101089.41;5011798;28;20100;-65
2022/10/28 10:36:30;;;;;;;2.35;1.17;;;;;;;22.94;74.87;101086.66;5024548;28;20049;-65
2022/10/28 10:39:01;;;;;;;3.10;1.00;;;;;;;22.92;74.07;101082.78;5033040;28;20048;-65
2022/10/28 10:41:39;;;;;;;1.13;1.00;;;;;;;22.94;74.16;101078.41;5034301;28;20047;-65
2022/10/28 10:44:28;;;;;;;4.70;0.75;;;;;;;22.84;74.31;101084.16;5038229;28;20041;-65
2022/10/28 10:46:54;;;;;;;2.70;0.85;;;;;;;22.95;74.13;101081.94;5027532;28;20032;-65
2022/10/28 10:49:19;;;;;;;3.17;1.33;;;;;;;22.95;74.72;101065.44;5017458;28;20065;-65
2022/10/28 10:51:53;;;;;;;2.97;1.52;;;;;;;22.95;74.45;101059.94;5027610;28;20040;-65
2022/10/28 10:54:19;;;;;;;1.30;1.10;;;;;;;22.85;74.09;101058.22;5023600;28;20033;-65
2022/10/28 10:56:45;;;;;;;1.90;1.00;;;;;;;22.94;74.07;101059.16;5026378;28;20041;-65
2022/10/28 10:59:27;;;;;;;1.25;1.08;;;;;;;23.05;74.33;101047.94;5028421;28;20121;-65
2022/10/28 11:01:56;;;;;;;6.07;1.00;;;;;;;23.06;74.24;101055.75;5020138;28;20842;-65
2022/10/28 11:04:24;;;;;;;3.28;1.02;;;;;;;23.13;74.43;101050.06;5018480;28;20036;-65
2022/10/28 11:06:52;;;;;;;2.00;0.80;;;;;;;23.22;73.32;101064.00;5033774;28;20029;-65
2022/10/28 11:09:31;;;;;;;5.00;1.00;;;;;;;23.13;72.52;101050.06;5014188;28;20624;-65
2022/10/28 11:11:57;;;;;;;1.67;0.70;;;;;;;23.22;72.36;101053.00;5027225;28;20033;-65
2022/10/28 11:14:29;;;;;;;2.67;1.13;;;;;;;23.24;71.33;101050.59;5026659;28;20039;-66
2022/10/28 11:16:59;;;;;;;7.35;1.10;;;;;;;23.28;71.62;101048.53;5016824;28;20036;-66
2022/10/28 11:19:35;;;;;;;4.72;0.80;;;;;;;23.26;71.45;101044.66;5027056;28;20065;-65
2022/10/28 11:22:23;;;;;;;2.83;1.38;;;;;;;23.29;70.84;101041.03;5024848;28;20037;-65
2022/10/28 11:25:09;;;;;;;2.17;0.77;;;;;;;23.23;71.09;101037.25;5021662;28;20053;-66
2022/10/28 11:27:56;;;;;;;2.45;0.90;;;;;;;23.28;71.51;101042.25;5020770;28;20795;-65
2022/10/28 11:30:33;;;;;;;1.33;1.23;;;;;;;23.35;71.70;101044.81;5025139;28;20062;-65
2022/10/28 11:33:12;;;;;;;1.50;0.82;;;;;;;23.28;71.80;101042.25;5025618;28;20037;-65
2022/10/28 11:35:45;;;;;;;1.90;0.90;;;;;;;23.42;70.84;101046.63;5024925;28;20873;-66
2022/10/28 11:38:42;;;;;;;2.25;1.13;;;;;;;23.58;69.85;101046.56;5024808;28;20119;-65